イルクーツク の空港の天気 - METARとTAF

イルクーツク国際空港 ( UIII / IKT ) - ロシア イルクーツク
飛行場実況気象(Metar)
観測時間05/27 04:30 IRKT (05/26 20:30 UTC)
風向・風速南南東 4m/s
視程10km以上
天気現象
なし
気温14℃
湿度63%
気圧999hPa
METARUIII 262030Z 16004MPS CAVOK 14/07 Q0999 R12/60D NOSIG RMK QFE707/0943
過去の天気等 Google飛行場航空写真 Wunderground天気予報

過去48時間のMETAR

飛行場予報(TAF)
発表時間: 5/27 04:00 IRKT (5/26 20:00 UTC)
予報対象時間: 27日5時 IRKT ~ 28日5時 IRKT
風向・風速南 5m/s 瞬間風速 10m/s
視程10km以上
全天の4割程度の積乱雲 雲底高度 610m
27日8時 IRKT ~ 27日10時 IRKT に徐々に
風向・風速西北西 8m/s 瞬間風速 13m/s
27日10時 IRKT ~ 27日20時 IRKT に一時的に
風向・風速不定 20m/s
天気現象弱い雷雨
TAF UIII 262000Z 2621/2721 17005G10MPS 9999 SCT020CB
BECMG 2700/2702 30008G13MPS
TEMPO 2702/2712 VRB20MPS -TSRA